Pembury, United Kingdom
Current Conditions -  °F | °C
As of 4:20 PM on Saturday 20 Dec 2014 (Local Time) from EGKB Reporting Station
Scattered Clouds Scattered Clouds  
Wind Chill: 41°   Ceiling: Unl
Heat Index: 46°   Visibility: 6mi
Dew Point: 36°   Wind: 12mph
Humidity: 66%   Direction: 270°W
Pressure: 30.36"   Gusts: NA
Location:  51.14°N, 0.32°E
Report Text: EGKB 201620Z 27010KT 9999 SCT030 08/02 Q1028
Loading
Personal Weather Stations






























Interactive Weather Map New forecast layout! Learn more

10-Day Weather Forecast

Advertisements
Track Severe Weather on mobile